createdAt,value
2019-06-20T00:04:16.479Z,22.80
2019-06-20T00:09:20.936Z,22.62
2019-06-20T00:14:24.984Z,22.45
2019-06-20T00:19:29.094Z,22.63
2019-06-20T00:24:33.689Z,22.49
2019-06-20T00:29:37.704Z,22.22
2019-06-20T00:34:41.904Z,22.03
2019-06-20T00:39:45.962Z,21.78
2019-06-20T00:44:50.059Z,21.70
2019-06-20T00:49:54.083Z,21.62
2019-06-20T00:54:58.095Z,21.50
2019-06-20T01:00:02.163Z,21.77
2019-06-20T01:05:07.233Z,22.33
2019-06-20T01:10:11.528Z,22.48
2019-06-20T01:15:15.720Z,22.43
2019-06-20T01:20:20.501Z,22.30
2019-06-20T01:25:37.784Z,22.12
2019-06-20T01:30:41.873Z,21.94
2019-06-20T01:35:46.044Z,21.66
2019-06-20T01:40:50.106Z,21.42
2019-06-20T01:45:54.121Z,21.16
2019-06-20T01:50:58.164Z,20.95
2019-06-20T01:56:02.271Z,20.74
2019-06-20T02:01:06.653Z,20.56
2019-06-20T02:06:11.579Z,20.40
2019-06-20T02:11:15.631Z,20.26
2019-06-20T02:16:19.674Z,20.26
2019-06-20T02:21:24.031Z,20.04
2019-06-20T02:26:28.503Z,19.96
2019-06-20T02:31:32.516Z,19.76
2019-06-20T02:36:36.513Z,19.60
2019-06-20T02:41:40.618Z,19.31
2019-06-20T02:46:44.835Z,19.08
2019-06-20T02:51:49.555Z,18.98
2019-06-20T02:56:53.582Z,18.80
2019-06-20T03:01:57.601Z,18.72
2019-06-20T03:07:01.814Z,18.80
2019-06-20T03:12:05.926Z,19.00
2019-06-20T03:17:10.035Z,19.08
2019-06-20T03:22:14.226Z,19.36
2019-06-20T03:27:20.013Z,19.59
2019-06-20T03:32:24.043Z,19.44
2019-06-20T03:37:28.373Z,19.24
2019-06-20T03:42:32.448Z,19.10
2019-06-20T03:47:36.490Z,19.12
2019-06-20T03:52:40.848Z,19.20
2019-06-20T03:57:45.310Z,19.51
2019-06-20T04:02:49.429Z,19.67
2019-06-20T04:07:53.767Z,19.83
2019-06-20T04:12:57.835Z,20.06
2019-06-20T04:18:02.150Z,20.39
2019-06-20T04:23:06.263Z,20.67
2019-06-20T04:28:10.376Z,20.94
2019-06-20T04:33:14.478Z,25.99
2019-06-20T04:38:18.831Z,28.76
2019-06-20T04:43:22.922Z,30.67
2019-06-20T04:48:26.945Z,31.64
2019-06-20T04:53:30.956Z,33.35
2019-06-20T04:58:34.997Z,32.91
2019-06-20T05:03:39.038Z,32.03
2019-06-20T05:08:45.472Z,28.77
2019-06-20T05:13:49.902Z,25.67
2019-06-20T05:18:54.362Z,26.11
2019-06-20T05:23:58.482Z,26.68
2019-06-20T05:29:05.401Z,22.59
2019-06-20T05:34:08.358Z,19.73
2019-06-20T05:39:12.363Z,19.22
2019-06-20T05:44:16.408Z,19.25
2019-06-20T05:49:20.459Z,19.46
2019-06-20T05:54:24.539Z,19.49
2019-06-20T05:59:28.583Z,19.41
2019-06-20T06:04:32.827Z,19.19
2019-06-20T06:09:37.299Z,19.06
2019-06-20T06:14:41.824Z,18.86
2019-06-20T06:19:46.220Z,18.85
2019-06-20T06:24:50.280Z,18.65
2019-06-20T06:29:54.391Z,18.45
2019-06-20T06:34:59.440Z,18.38
2019-06-20T06:40:04.605Z,18.34
2019-06-20T06:45:10.428Z,18.35
2019-06-20T06:50:15.487Z,18.52
2019-06-20T06:55:21.848Z,18.65
2019-06-20T07:00:26.718Z,19.13
2019-06-20T07:05:30.747Z,19.80
2019-06-20T07:10:34.891Z,19.81
2019-06-20T07:15:39.392Z,19.74
2019-06-20T07:20:43.568Z,19.82
2019-06-20T07:25:47.973Z,19.90
2019-06-20T07:30:52.107Z,19.87
2019-06-20T07:35:56.171Z,20.22
2019-06-20T07:41:00.221Z,20.84
2019-06-20T07:46:04.493Z,21.11
2019-06-20T07:51:08.938Z,21.01
2019-06-20T07:56:12.926Z,21.68
2019-06-20T08:01:17.157Z,22.40
2019-06-20T08:06:21.397Z,21.77
2019-06-20T08:11:25.549Z,22.27
2019-06-20T08:16:30.103Z,24.52
2019-06-20T08:21:34.145Z,24.83
2019-06-20T08:26:38.401Z,23.74
2019-06-20T08:31:42.818Z,24.23
2019-06-20T08:36:47.405Z,28.65
2019-06-20T08:41:51.412Z,30.99
2019-06-20T08:46:56.593Z,28.88
2019-06-20T08:52:01.348Z,27.10
2019-06-20T08:57:05.948Z,25.82
2019-06-20T09:02:10.175Z,26.30
2019-06-20T09:07:14.787Z,27.47
2019-06-20T09:12:19.151Z,28.96
2019-06-20T09:17:23.252Z,30.15
2019-06-20T09:22:27.255Z,29.32
2019-06-20T09:27:32.590Z,30.29
2019-06-20T09:32:36.686Z,30.71
2019-06-20T09:37:40.858Z,33.74
2019-06-20T09:42:45.378Z,31.53
2019-06-20T09:47:56.299Z,29.23
2019-06-20T09:53:00.360Z,30.94
2019-06-20T09:58:04.668Z,33.53
2019-06-20T10:03:08.851Z,32.34
2019-06-20T10:08:13.419Z,32.60
2019-06-20T10:13:17.935Z,32.37
2019-06-20T10:18:22.374Z,31.69
2019-06-20T10:23:26.445Z,32.27
2019-06-20T10:28:31.085Z,33.12
2019-06-20T10:33:35.218Z,31.24
2019-06-20T10:38:39.687Z,31.83
2019-06-20T10:43:44.594Z,32.90
2019-06-20T10:48:50.225Z,32.63
2019-06-20T10:53:54.804Z,32.59
2019-06-20T10:58:59.067Z,32.97
2019-06-20T11:04:04.421Z,30.68
2019-06-20T11:09:09.732Z,30.34
2019-06-20T11:14:13.810Z,30.67
2019-06-20T11:19:18.286Z,31.06
2019-06-20T11:24:22.652Z,31.61
2019-06-20T11:29:27.015Z,31.53
2019-06-20T11:34:31.132Z,31.33
2019-06-20T11:39:36.227Z,29.67
2019-06-20T11:44:41.565Z,29.04
2019-06-20T11:49:46.970Z,28.96
2019-06-20T11:54:51.134Z,29.56
2019-06-20T11:59:55.600Z,29.53
2019-06-20T12:04:59.731Z,30.63
2019-06-20T12:10:04.701Z,32.07
2019-06-20T12:15:09.250Z,30.81
2019-06-20T12:20:15.090Z,30.44
2019-06-20T12:25:19.525Z,30.01
2019-06-20T12:30:24.852Z,29.89
2019-06-20T12:35:30.243Z,31.71
2019-06-20T12:40:34.543Z,32.34
2019-06-20T12:45:40.027Z,32.31
2019-06-20T12:50:45.070Z,30.89
2019-06-20T12:55:50.743Z,29.70
2019-06-20T13:00:54.904Z,29.07
2019-06-20T13:05:59.410Z,28.83
2019-06-20T13:11:03.578Z,29.93
2019-06-20T13:16:08.611Z,28.85
2019-06-20T13:21:12.691Z,28.48
2019-06-20T13:26:17.099Z,27.05
2019-06-20T13:31:21.942Z,24.54
2019-06-20T13:36:26.016Z,23.07
2019-06-20T13:41:31.244Z,22.42
2019-06-20T13:46:35.255Z,22.74
2019-06-20T13:51:40.553Z,25.15
2019-06-20T13:56:45.387Z,25.64
2019-06-20T14:01:49.516Z,24.93
2019-06-20T14:06:53.806Z,24.21
2019-06-20T14:11:58.041Z,23.90
2019-06-20T14:17:02.226Z,23.30
2019-06-20T14:22:06.490Z,22.75
2019-06-20T14:27:10.493Z,22.22
2019-06-20T14:32:22.122Z,22.00
2019-06-20T14:37:21.604Z,22.41
2019-06-20T14:42:25.703Z,23.15
2019-06-20T14:47:30.169Z,24.91
2019-06-20T14:52:34.202Z,27.20
2019-06-20T14:57:38.227Z,28.33
2019-06-20T15:02:43.775Z,29.07
2019-06-20T15:07:49.550Z,29.12
2019-06-20T15:12:55.648Z,29.14
2019-06-20T15:18:00.155Z,28.79
2019-06-20T15:23:04.208Z,28.90
2019-06-20T15:28:26.123Z,29.15
2019-06-20T15:33:49.349Z,29.05
2019-06-20T15:39:11.951Z,29.25
2019-06-20T15:44:33.981Z,29.18
2019-06-20T15:49:56.250Z,29.02
2019-06-20T15:55:19.717Z,29.03
2019-06-20T16:00:41.993Z,28.86
2019-06-20T16:06:06.397Z,29.36
2019-06-20T16:11:28.918Z,29.37
2019-06-20T16:16:32.946Z,29.21
2019-06-20T16:21:37.104Z,28.88
2019-06-20T16:26:41.111Z,28.65
2019-06-20T16:31:45.316Z,28.39
2019-06-20T16:36:49.481Z,28.56
2019-06-20T16:41:53.868Z,28.71
2019-06-20T16:46:58.298Z,28.49
2019-06-20T16:52:06.607Z,28.67
2019-06-20T16:57:11.092Z,27.77
2019-06-20T17:02:15.060Z,26.93
2019-06-20T17:07:19.116Z,26.71
2019-06-20T17:12:23.802Z,27.54
2019-06-20T17:17:28.067Z,28.05
2019-06-20T17:22:32.066Z,27.69
2019-06-20T17:27:36.164Z,27.91
2019-06-20T17:32:40.227Z,28.39
2019-06-20T17:37:45.288Z,27.87
2019-06-20T17:42:49.367Z,28.05
2019-06-20T17:47:53.387Z,27.71
2019-06-20T17:52:57.475Z,27.81
2019-06-20T17:58:01.538Z,27.73
2019-06-20T18:03:05.732Z,27.87
2019-06-20T18:08:15.198Z,27.96
2019-06-20T18:13:15.516Z,28.12
2019-06-20T18:18:19.595Z,28.06
2019-06-20T18:23:23.984Z,27.56
2019-06-20T18:28:28.013Z,27.17
2019-06-20T18:33:32.056Z,26.58
2019-06-20T18:38:36.154Z,25.78
2019-06-20T18:43:40.507Z,25.04
2019-06-20T18:48:44.575Z,24.53
2019-06-20T18:53:50.695Z,24.11
2019-06-20T18:58:54.848Z,23.82
2019-06-20T19:03:58.937Z,23.64
2019-06-20T19:09:06.722Z,23.42
2019-06-20T19:14:12.568Z,23.05
2019-06-20T19:19:16.025Z,22.79
2019-06-20T19:24:20.051Z,22.57
2019-06-20T19:29:24.088Z,22.43
2019-06-20T19:34:28.218Z,22.36
2019-06-20T19:39:32.256Z,22.24
2019-06-20T19:44:36.340Z,22.04
2019-06-20T19:49:40.386Z,21.91
2019-06-20T19:54:44.575Z,21.90
2019-06-20T19:59:48.885Z,21.75
2019-06-20T20:04:52.994Z,21.63
2019-06-20T20:09:57.024Z,21.50
2019-06-20T20:15:01.074Z,21.45
2019-06-20T20:20:06.163Z,21.60
2019-06-20T20:25:10.709Z,21.58
2019-06-20T20:30:16.451Z,21.66
2019-06-20T20:35:34.960Z,21.46
2019-06-20T20:40:31.633Z,21.31
2019-06-20T20:45:36.713Z,21.10
2019-06-20T20:50:41.449Z,20.91
2019-06-20T20:55:46.742Z,20.73
2019-06-20T21:01:04.508Z,20.77
2019-06-20T21:06:09.415Z,20.75
2019-06-20T21:11:14.292Z,20.78
2019-06-20T21:16:18.271Z,20.65
2019-06-20T21:21:22.329Z,20.56
2019-06-20T21:26:26.340Z,20.49
2019-06-20T21:31:30.447Z,20.52
2019-06-20T21:36:34.452Z,20.59
2019-06-20T21:41:38.496Z,20.52
2019-06-20T21:46:42.569Z,20.65
2019-06-20T21:51:46.591Z,20.68
2019-06-20T21:56:50.651Z,20.62
2019-06-20T22:01:54.703Z,20.47
2019-06-20T22:06:58.727Z,20.35
2019-06-20T22:12:02.773Z,20.08
2019-06-20T22:17:06.839Z,19.84
2019-06-20T22:22:10.837Z,19.74
2019-06-20T22:27:14.993Z,19.71
2019-06-20T22:32:19.656Z,19.51
2019-06-20T22:37:30.808Z,19.38
2019-06-20T22:42:35.224Z,19.26
2019-06-20T22:47:39.238Z,19.16
2019-06-20T22:52:43.281Z,19.07
2019-06-20T22:57:47.324Z,19.00
2019-06-20T23:02:51.305Z,18.86
2019-06-20T23:07:55.347Z,18.73
2019-06-20T23:12:59.359Z,18.65
2019-06-20T23:18:03.806Z,18.46
2019-06-20T23:23:07.930Z,18.37
2019-06-20T23:28:11.906Z,18.22
2019-06-20T23:33:16.375Z,18.16
2019-06-20T23:38:20.746Z,18.04
2019-06-20T23:43:25.080Z,17.97
2019-06-20T23:48:29.671Z,17.88
2019-06-20T23:53:33.769Z,17.85
2019-06-20T23:58:37.759Z,17.93
